Time;durP1;ratioP1;P1;durP2;ratioP2;P2;SDS_P1;SDS_P2;PMS_P1;PMS_P2;Temp;Humidity;BMP_temperature;BMP_pressure;BME280_temperature;BME280_humidity;BME280_pressure;Samples;Min_cycle;Max_cycle;Signal;HPM_P1;HPM_P2
2023/01/11 00:07:12;;;;;;;1.45;1.23;;;;;;;21.02;54.79;100367.13;20896753;28;20534;-74
2023/01/11 00:17:37;;;;;;;1.77;1.27;;;;;;;21.00;54.95;100370.84;20886930;28;20048;-75
2023/01/11 00:27:37;;;;;;;1.40;1.30;;;;;;;20.99;54.41;100362.09;20876886;28;21460;-75
2023/01/11 00:37:38;;;;;;;1.45;1.10;;;;;;;20.94;54.13;100367.69;20891850;28;20029;-75
2023/01/11 00:47:56;;;;;;;1.75;1.17;;;;;;;20.94;54.44;100372.97;20894780;28;20067;-77
2023/01/11 00:57:58;;;;;;;1.48;1.17;;;;;;;20.94;54.66;100398.44;20904915;28;20151;-75
2023/01/11 01:07:58;;;;;;;1.52;1.10;;;;;;;20.91;54.63;100401.31;20894402;28;20047;-74
2023/01/11 01:17:59;;;;;;;3.17;1.20;;;;;;;20.90;54.34;100425.97;20899569;28;20036;-75
2023/01/11 01:27:59;;;;;;;2.08;1.50;;;;;;;20.90;54.62;100423.34;20890102;28;20045;-74
2023/01/11 01:38:00;;;;;;;2.10;1.40;;;;;;;20.87;54.54;100415.66;20885291;28;20040;-75
2023/01/11 01:48:01;;;;;;;1.50;1.20;;;;;;;20.86;54.40;100432.41;20897110;28;20044;-78
2023/01/11 01:58:06;;;;;;;1.42;1.20;;;;;;;20.84;54.41;100435.16;20893654;28;20040;-76
2023/01/11 02:08:12;;;;;;;1.52;1.40;;;;;;;20.82;54.47;100449.38;20883260;28;20621;-74
2023/01/11 02:18:13;;;;;;;2.60;1.63;;;;;;;20.82;54.59;100452.03;20892784;28;20041;-75
2023/01/11 02:28:34;;;;;;;1.40;1.20;;;;;;;20.80;54.49;100441.63;20894335;28;20525;-74
2023/01/11 02:38:43;;;;;;;1.48;1.13;;;;;;;20.77;54.49;100450.56;20892551;28;20048;-75
2023/01/11 02:49:08;;;;;;;1.40;1.30;;;;;;;20.75;54.33;100452.47;20886778;28;20167;-79
2023/01/11 02:59:22;;;;;;;1.77;1.05;;;;;;;20.75;54.71;100462.16;20892925;28;20047;-75
2023/01/11 03:09:42;;;;;;;1.45;1.25;;;;;;;20.73;54.33;100471.97;20887159;28;20072;-74
2023/01/11 03:19:51;;;;;;;1.00;0.90;;;;;;;20.70;54.40;100483.53;20896638;28;20067;-73
2023/01/11 03:30:05;;;;;;;1.20;1.10;;;;;;;20.69;54.47;100502.03;20886653;28;20044;-74
2023/01/11 03:40:11;;;;;;;1.23;1.00;;;;;;;20.68;54.47;100490.69;20895542;28;20120;-77
2023/01/11 03:50:12;;;;;;;1.30;1.20;;;;;;;20.67;54.49;100481.13;20892408;28;20064;-75
2023/01/11 04:00:13;;;;;;;1.23;1.13;;;;;;;20.67;54.48;100452.19;20889329;28;20047;-78
2023/01/11 04:10:14;;;;;;;1.20;1.10;;;;;;;20.67;54.42;100475.03;20898581;28;20139;-75
2023/01/11 04:20:16;;;;;;;1.30;1.20;;;;;;;20.64;54.46;100479.56;20896864;28;20124;-80
2023/01/11 04:30:17;;;;;;;1.30;1.20;;;;;;;20.64;54.49;100455.88;20898157;28;20063;-75
2023/01/11 04:40:17;;;;;;;1.13;1.02;;;;;;;20.64;54.25;100489.22;20898951;28;20044;-74
2023/01/11 04:50:18;;;;;;;1.88;1.27;;;;;;;20.63;54.46;100527.03;20902445;28;20102;-76
2023/01/11 05:00:18;;;;;;;1.52;1.20;;;;;;;20.62;54.27;100504.31;20895783;28;20079;-75
2023/01/11 05:10:19;;;;;;;1.42;1.20;;;;;;;20.62;54.19;100506.94;20894511;28;20117;-74
2023/01/11 05:20:19;;;;;;;1.92;1.42;;;;;;;20.68;54.76;100524.91;20880893;28;20079;-76
2023/01/11 05:30:20;;;;;;;5.28;1.50;;;;;;;20.77;54.91;100518.97;20886744;28;20550;-75
2023/01/11 05:40:20;;;;;;;7.15;1.33;;;;;;;20.86;55.10;100503.47;20889393;28;20048;-74
2023/01/11 05:50:21;;;;;;;3.70;1.40;;;;;;;20.92;54.52;100508.28;20882318;28;20041;-74
2023/01/11 06:00:22;;;;;;;5.80;1.55;;;;;;;20.98;54.88;100488.56;20880488;28;20040;-76
2023/01/11 06:10:22;;;;;;;3.92;2.30;;;;;;;20.92;50.49;100493.34;20884918;28;20041;-78
2023/01/11 06:20:22;;;;;;;6.88;1.77;;;;;;;21.04;52.62;100488.09;20903522;28;20061;-77
2023/01/11 06:30:24;;;;;;;4.30;2.08;;;;;;;21.10;53.43;100516.59;20889750;28;20048;-75
2023/01/11 06:40:25;;;;;;;6.47;2.10;;;;;;;21.08;51.81;100503.56;20886277;28;20539;-76
2023/01/11 06:50:26;;;;;;;2.97;1.83;;;;;;;21.15;52.12;100532.88;20905373;28;20063;-76
2023/01/11 07:00:26;;;;;;;2.88;1.90;;;;;;;21.21;52.94;100544.75;20881680;28;20094;-78
2023/01/11 07:10:27;;;;;;;5.07;1.80;;;;;;;21.25;52.63;100570.75;20906716;28;20055;-80
2023/01/11 07:20:28;;;;;;;3.97;2.00;;;;;;;21.30;52.94;100580.09;20892395;28;20589;-77
2023/01/11 07:30:31;;;;;;;3.88;1.65;;;;;;;21.35;53.00;100585.84;20898595;27;20045;-78
2023/01/11 07:40:35;;;;;;;2.65;1.90;;;;;;;21.43;52.97;100584.34;20898921;28;20036;-82
2023/01/11 07:50:37;;;;;;;4.20;1.90;;;;;;;21.55;52.54;100587.00;20897049;28;20040;-79
2023/01/11 08:00:39;;;;;;;3.15;2.15;;;;;;;21.58;53.30;100582.38;20897957;28;20051;-84
2023/01/11 08:10:40;;;;;;;2.27;1.87;;;;;;;21.64;53.30;100609.19;20910828;28;20102;-83
2023/01/11 08:20:40;;;;;;;2.40;1.83;;;;;;;21.68;52.88;100600.09;20929141;28;20036;-83
2023/01/11 08:30:43;;;;;;;3.92;2.10;;;;;;;21.68;52.21;100606.22;20927302;28;20052;-83
2023/01/11 08:40:43;;;;;;;5.23;2.37;;;;;;;21.74;52.47;100613.66;20925221;28;20087;-83
2023/01/11 08:50:44;;;;;;;4.20;2.90;;;;;;;21.80;52.72;100607.09;20928759;28;20037;-83
2023/01/11 09:00:44;;;;;;;5.68;4.47;;;;;;;21.85;52.58;100618.13;20926740;28;20040;-83
2023/01/11 09:10:45;;;;;;;7.20;5.43;;;;;;;21.90;52.94;100628.31;20915221;28;20044;-82
2023/01/11 09:20:45;;;;;;;6.53;4.70;;;;;;;21.96;52.56;100626.97;20920664;28;20055;-80
2023/01/11 09:30:45;;;;;;;8.05;6.00;;;;;;;21.99;52.50;100614.41;20918573;28;20045;-80
2023/01/11 09:40:49;;;;;;;7.80;6.03;;;;;;;22.01;52.16;100604.59;20924468;28;20043;-82
2023/01/11 09:50:49;;;;;;;9.15;6.43;;;;;;;22.03;52.27;100610.59;20919167;28;20215;-83
2023/01/11 10:00:54;;;;;;;9.52;6.80;;;;;;;22.09;52.44;100592.59;20945613;28;20230;-81
2023/01/11 10:11:40;;;;;;;9.40;6.97;;;;;;;22.13;52.21;100565.03;20939610;28;20139;-82
2023/01/11 10:22:03;;;;;;;7.88;6.35;;;;;;;22.19;52.11;100569.81;20908516;28;20397;-83
2023/01/11 10:32:33;;;;;;;9.40;6.47;;;;;;;22.25;51.73;100574.59;20931995;28;20143;-85
2023/01/11 10:42:46;;;;;;;9.18;6.50;;;;;;;22.28;52.03;100570.91;20932227;28;20051;-82
2023/01/11 10:53:27;;;;;;;9.10;6.88;;;;;;;22.35;51.82;100579.97;20927691;28;20055;-80
2023/01/11 11:04:02;;;;;;;8.75;6.10;;;;;;;22.36;51.61;100566.69;20918888;28;21648;-83
2023/01/11 11:14:14;;;;;;;7.28;5.85;;;;;;;22.35;51.74;100543.91;20933068;27;20097;-82
2023/01/11 11:24:32;;;;;;;8.70;5.97;;;;;;;22.42;51.77;100520.53;20934127;28;20048;-84
2023/01/11 11:34:33;;;;;;;9.23;5.43;;;;;;;22.52;51.90;100518.84;20934782;28;20041;-84
2023/01/11 11:44:34;;;;;;;11.48;5.20;;;;;;;22.58;51.46;100525.38;20946240;28;20061;-82
2023/01/11 11:54:48;;;;;;;6.70;4.68;;;;;;;22.64;51.13;100514.38;20937579;28;20045;-82
2023/01/11 12:04:50;;;;;;;6.63;4.60;;;;;;;22.71;51.01;100525.25;20914668;28;20040;-83
2023/01/11 12:15:18;;;;;;;7.32;4.70;;;;;;;22.82;51.06;100529.66;20915269;28;20103;-87
2023/01/11 12:25:24;;;;;;;14.80;4.57;;;;;;;22.78;44.95;100523.78;20956928;28;20116;-90
2023/01/11 12:35:28;;;;;;;21.90;4.95;;;;;;;22.92;50.18;100533.19;20943675;28;20040;-84
2023/01/11 12:45:37;;;;;;;16.63;5.13;;;;;;;22.96;50.35;100541.69;20949564;28;20584;-88
2023/01/11 12:56:17;;;;;;;9.13;4.80;;;;;;;23.00;50.33;100529.94;20926554;28;20041;-88
2023/01/11 13:06:24;;;;;;;10.43;4.93;;;;;;;23.01;50.53;100513.13;20923832;28;20178;-84
2023/01/11 13:16:33;;;;;;;7.00;4.40;;;;;;;23.02;50.90;100520.06;20931639;28;20071;-82
2023/01/11 13:26:40;;;;;;;9.32;4.90;;;;;;;22.98;50.90;100524.75;20937096;28;20364;-82
2023/01/11 13:36:44;;;;;;;6.63;4.70;;;;;;;22.94;50.60;100533.91;20916733;28;20040;-84
2023/01/11 13:46:54;;;;;;;8.23;4.10;;;;;;;22.89;50.71;100541.38;20915798;28;20044;-86
2023/01/11 13:57:00;;;;;;;7.85;4.57;;;;;;;22.86;51.17;100537.19;20942308;28;20472;-84
2023/01/11 14:07:16;;;;;;;7.93;4.07;;;;;;;22.81;51.39;100536.75;20925358;28;20098;-84
2023/01/11 14:17:32;;;;;;;9.00;4.05;;;;;;;22.78;51.58;100542.25;20938380;28;20048;-86
2023/01/11 14:27:50;;;;;;;6.53;4.00;;;;;;;22.71;51.22;100518.16;20930122;28;20037;-84
2023/01/11 14:38:07;;;;;;;6.68;4.32;;;;;;;22.62;51.29;100532.13;20931314;28;20063;-86
2023/01/11 14:48:19;;;;;;;8.60;3.83;;;;;;;22.56;51.28;100532.63;20911916;28;20493;-86
2023/01/11 14:58:30;;;;;;;5.63;3.70;;;;;;;22.52;50.92;100525.88;20902573;28;20032;-84
2023/01/11 15:08:40;;;;;;;6.13;3.42;;;;;;;22.47;50.89;100535.97;20913730;28;20888;-83
2023/01/11 15:18:45;;;;;;;4.53;3.47;;;;;;;22.40;51.23;100517.19;20917300;28;20175;-84
2023/01/11 15:28:53;;;;;;;7.43;3.42;;;;;;;22.36;51.26;100544.72;20919049;28;20132;-84
2023/01/11 15:39:04;;;;;;;4.97;3.60;;;;;;;22.29;51.35;100533.84;20918567;28;20680;-82
2023/01/11 15:49:25;;;;;;;5.30;3.42;;;;;;;22.25;51.31;100534.22;20925642;28;20043;-83
2023/01/11 16:00:04;;;;;;;5.97;3.43;;;;;;;22.20;51.42;100547.75;20909035;28;20107;-83
2023/01/11 16:10:17;;;;;;;5.78;3.40;;;;;;;22.18;51.92;100541.75;20925958;28;20049;-81
2023/01/11 16:20:17;;;;;;;4.60;3.15;;;;;;;22.13;52.50;100541.28;20927797;28;20067;-83
2023/01/11 16:30:19;;;;;;;6.10;3.60;;;;;;;22.03;53.18;100534.13;20924830;28;20051;-82
2023/01/11 16:40:30;;;;;;;4.85;3.17;;;;;;;21.99;52.91;100545.03;20933940;28;20051;-81
2023/01/11 16:50:32;;;;;;;5.97;3.50;;;;;;;21.98;52.40;100541.53;20894762;28;20037;-86
2023/01/11 17:00:36;;;;;;;5.53;3.25;;;;;;;21.97;52.26;100541.66;20913377;28;20097;-88
2023/01/11 17:10:38;;;;;;;5.32;2.92;;;;;;;21.93;52.64;100548.13;20926660;28;20045;-86
2023/01/11 17:20:39;;;;;;;4.80;3.20;;;;;;;21.93;52.62;100546.34;20933909;28;20507;-84
2023/01/11 17:30:44;;;;;;;8.00;3.45;;;;;;;21.91;53.01;100537.72;20927536;28;20045;-86
2023/01/11 17:40:45;;;;;;;7.07;3.50;;;;;;;21.89;53.37;100553.63;20937992;28;20054;-85
2023/01/11 17:50:48;;;;;;;8.05;2.97;;;;;;;21.90;53.93;100562.41;20925802;28;20041;-84
2023/01/11 18:01:07;;;;;;;5.07;3.28;;;;;;;21.88;53.71;100557.22;20899085;28;20089;-84
2023/01/11 18:11:07;;;;;;;46.45;14.20;;;;;;;21.88;53.80;100566.94;20912239;28;20083;-83
2023/01/11 18:21:30;;;;;;;79.38;18.73;;;;;;;21.91;56.55;100590.44;20918912;28;20049;-81
2023/01/11 18:31:31;;;;;;;40.47;12.70;;;;;;;20.58;39.95;100587.88;20914449;28;20625;-85
2023/01/11 18:51:52;;;;;;;86.03;23.27;;;;;;;21.63;58.22;100599.59;20921406;28;20068;-85
2023/01/11 19:01:59;;;;;;;72.55;21.10;;;;;;;21.69;57.79;100596.50;20943989;28;20508;-84
2023/01/11 19:12:00;;;;;;;72.80;19.45;;;;;;;21.72;58.72;100597.13;20928655;28;20047;-84
2023/01/11 19:22:01;;;;;;;63.92;19.23;;;;;;;21.73;58.02;100605.88;20942812;28;20041;-83
2023/01/11 19:32:02;;;;;;;53.25;17.17;;;;;;;21.74;57.76;100607.56;20928699;28;20045;-86
2023/01/11 19:42:04;;;;;;;51.05;17.08;;;;;;;21.77;57.85;100627.56;20930669;28;20055;-85
2023/01/11 19:52:11;;;;;;;44.25;15.63;;;;;;;21.76;57.62;100645.16;20930985;28;20047;-84
2023/01/11 20:02:14;;;;;;;40.97;14.48;;;;;;;;;;20919067;28;20069;-83
2023/01/11 20:12:14;;;;;;;;;;;;;;;21.67;56.23;100641.44;20911845;28;20076;-81
2023/01/11 20:22:15;;;;;;;37.83;13.65;;;;;;;21.67;55.48;100635.34;20914424;28;19924;-82
2023/01/11 20:32:17;;;;;;;34.33;12.43;;;;;;;21.71;55.49;100636.78;20916837;28;20055;-84
2023/01/11 20:42:29;;;;;;;32.13;12.38;;;;;;;21.70;55.44;100646.47;20905076;28;20049;-82
2023/01/11 20:52:30;;;;;;;29.67;11.82;;;;;;;21.70;54.84;100649.13;20939728;28;20083;-81
2023/01/11 21:02:30;;;;;;;27.70;12.13;;;;;;;21.67;55.64;100645.88;20922953;28;20100;-82
2023/01/11 21:12:31;;;;;;;21.58;10.27;;;;;;;21.66;55.56;100679.28;20930351;28;20110;-83
2023/01/11 21:22:31;;;;;;;28.25;11.75;;;;;;;21.64;56.09;100664.53;20929372;28;20059;-82
2023/01/11 21:32:32;;;;;;;24.55;10.95;;;;;;;21.61;56.16;100670.88;20924527;28;20592;-81
2023/01/11 21:42:32;;;;;;;21.13;10.82;;;;;;;21.59;56.25;100673.63;20958461;28;20155;-82
2023/01/11 21:52:34;;;;;;;22.00;10.50;;;;;;;21.56;56.13;100687.03;20958097;28;20045;-82
2023/01/11 22:02:35;;;;;;;23.50;11.33;;;;;;;21.54;56.36;100690.72;20952803;28;20048;-83
2023/01/11 22:12:36;;;;;;;21.83;10.38;;;;;;;21.52;56.42;100705.78;20956872;28;20048;-81
2023/01/11 22:22:36;;;;;;;22.42;10.65;;;;;;;21.52;56.17;100687.34;20929935;27;20036;-80
2023/01/11 22:32:37;;;;;;;20.27;10.07;;;;;;;21.49;55.77;100693.69;20946135;28;20575;-80
2023/01/11 22:42:37;;;;;;;19.98;10.07;;;;;;;21.46;55.69;100698.31;20952919;28;20060;-80
2023/01/11 22:52:38;;;;;;;18.33;9.95;;;;;;;21.43;56.09;100713.44;20927895;28;20044;-81
2023/01/11 23:02:39;;;;;;;20.67;10.20;;;;;;;21.41;55.82;100709.19;20916825;28;20414;-80
2023/01/11 23:22:59;;;;;;;17.30;9.50;;;;;;;21.35;55.84;100689.44;20938599;28;20053;-81
2023/01/11 23:32:59;;;;;;;17.55;9.60;;;;;;;21.33;55.42;100706.31;20924647;28;20059;-81
2023/01/11 23:43:01;;;;;;;17.25;9.30;;;;;;;21.29;55.60;100700.41;20935822;28;20075;-81
2023/01/11 23:53:01;;;;;;;17.33;9.65;;;;;;;21.28;55.63;100701.38;20929866;28;20048;-81
